Latest Weather Observations for Dartmoor

IDV60801

Issued at 9:52 pm EDT Thursday 17 January 2019 (issued every 10 minutes, with the page automatically refreshed every 10 minutes)

About weather observations | Map of weather stations | Latest weather observations for VIC | Other Formats
Station Details ID: 090194 Name: DARTMOOR Lat: -37.92 Lon: 141.26 Height: 51.0 m
Data from the previous 72 hours. | See also: Recent months at Dartmoor
Date/Time
EDT
Temp
°C
App
Temp
°C
Dew
Point
°C
Rel
Hum
%
Delta-T
°C
Wind Press
QNH
hPa
Press
MSL
hPa
Rain since
9am
mm
Dir  Spd
km/h
Gust
km/h
Spd
kts
Gust
kts
17/09:30pm 21.4 23.1 18.6 84 1.8 N 7 13 4 7 1009.0 1008.8 0.6
17/09:00pm 22.3 23.4 17.2 73 3.1 NNE 7 13 4 7 1008.9 1008.7 0.2
17/08:30pm 23.1 24.0 16.2 65 4.2 N 6 7 3 4 1008.6 1008.4 0.2
17/08:00pm 23.2 24.1 16.0 64 4.4 NE 6 7 3 4 1008.0 1007.8 0.2
17/07:30pm 23.4 24.3 16.0 63 4.5 ENE 6 9 3 5 1008.0 1007.8 0.2
17/07:00pm 23.2 25.3 16.3 65 4.2 CALM 0 2 0 1 1008.6 1008.4 0.2
17/06:30pm 23.0 23.9 16.5 67 4.0 SSW 7 9 4 5 1008.3 1008.1 0.2
17/06:00pm 24.2 23.2 15.7 59 5.2 SW 15 22 8 12 1008.1 1007.9 0.2
17/05:30pm 25.1 23.5 16.0 57 5.6 SSW 19 26 10 14 1007.2 1007.1 0.2
17/05:00pm 28.5 27.0 15.4 45 8.0 W 17 28 9 15 1007.5 1007.4 0.2
17/04:30pm 28.9 27.3 16.1 46 7.9 WNW 19 30 10 16 1008.1 1007.9 0.2
17/04:00pm 29.7 28.4 16.8 45 8.1 W 19 30 10 16 1008.1 1007.9 0.2
17/03:30pm 29.4 29.8 18.2 51 7.2 W 13 22 7 12 1007.5 1007.4 0.2
17/03:00pm 29.1 29.1 18.2 51 7.0 WNW 15 22 8 12 1007.8 1007.7 0.2
17/02:30pm 28.9 29.5 17.7 50 7.1 NNW 11 19 6 10 1007.4 1007.3 0.2
17/02:00pm 28.1 29.4 17.6 53 6.7 NNW 7 11 4 6 1007.0 1006.9 0.2
17/01:30pm 27.8 29.1 17.6 53 6.4 NNW 7 11 4 6 1007.0 1006.9 0.2
17/01:00pm 26.5 28.8 17.8 58 5.5 WSW 2 6 1 3 1007.2 1007.1 0.2
17/12:30pm 24.1 26.9 19.6 76 2.9 NE 4 6 2 3 1007.4 1007.3 0.2
17/12:00pm 24.8 24.6 17.5 64 4.6 NNW 15 22 8 12 1009.0 1008.8 0.0
17/11:30am 28.1 26.8 14.7 44 8.1 NNW 15 20 8 11 1008.5 1008.3 0.0
17/11:00am 27.7 27.9 15.7 48 7.4 NNW 9 15 5 8 1008.3 1008.1 0.0
17/10:30am 26.9 25.8 15.3 49 7.1 N 15 26 8 14 1007.8 1007.7 0.0
17/10:00am 26.6 26.1 15.0 49 7.0 N 11 15 6 8 1008.0 1007.8 0.0
17/09:30am 25.0 24.9 15.0 53 6.0 N 9 15 5 8 1008.2 1008.0 0.0
17/09:00am 23.6 24.4 16.4 64 4.4 NNE 7 11 4 6 1008.2 1008.0 0.0
17/08:30am 22.2 22.3 15.5 66 4.0 NNE 9 13 5 7 1007.6 1007.5 0.0
17/08:00am 21.2 22.1 16.0 72 3.1 NE 6 9 3 5 1007.2 1007.1 0.0
17/07:30am 20.8 22.0 16.0 74 2.9 NE 4 6 2 3 1007.0 1006.9 0.0
17/07:00am 20.9 21.5 15.9 73 3.0 NNE 7 17 4 9 1007.0 1006.9 0.0
17/06:30am 20.5 21.3 15.9 75 2.8 NE 6 7 3 4 1007.1 1007.0 0.0
17/06:00am 20.4 21.0 15.8 75 2.8 E 7 11 4 6 1006.7 1006.6 0.0
17/05:30am 20.8 21.7 16.0 74 2.9 NE 6 7 3 4 1008.0 1007.8 0.0
17/05:00am 21.3 21.0 15.4 69 3.5 SSW 11 15 6 8 1008.4 1008.2 0.0
17/04:30am 21.8 21.4 15.2 66 3.9 SW 11 19 6 10 1008.2 1008.0 0.0
17/04:00am 21.0 19.3 16.2 74 2.9 SSW 20 39 11 21 1007.5 1007.4 0.0
17/03:55am 20.3 20.1 16.7 80 2.2 SSW 13 39 7 21 1007.6 1007.5 0.0
17/03:30am 20.2 22.1 16.6 80 2.2 SSW 2 4 1 2 1006.2 1006.1 0.0
17/03:00am 20.1 21.2 16.7 81 2.1 ENE 6 9 3 5 1005.8 1005.7 0.0
17/02:30am 20.1 21.4 17.1 83 1.8 ENE 6 7 3 4 1006.5 1006.4 0.0
17/02:00am 20.2 21.9 17.2 83 1.8 ENE 4 6 2 3 1006.9 1006.8 0.0
17/01:30am 20.5 22.1 16.9 80 2.2 ESE 4 6 2 3 1007.2 1007.1 0.0
17/01:00am 20.6 21.1 16.6 78 2.4 E 9 15 5 8 1007.2 1007.1 0.0
17/12:30am 21.1 21.4 16.1 73 3.0 ESE 9 13 5 7 1007.6 1007.5 0.0
17/12:00am 21.5 21.3 15.8 70 3.4 ESE 11 17 6 9 1008.1 1007.9 0.0
 
Date/Time
EDT
Temp
°C
App
Temp
°C
Dew
Point
°C
Rel
Hum
%
Delta-T
°C
Wind Press
QNH
hPa
Press
MSL
hPa
Rain since
9am
mm
Dir  Spd
km/h
Gust
km/h
Spd
kts
Gust
kts
16/11:30pm 21.7 22.1 14.8 65 4.1 E 6 7 3 4 1008.3 1008.1 0.0
16/11:00pm 22.6 22.9 15.0 62 4.5 SSE 7 13 4 7 1008.9 1008.7 0.0
16/10:30pm 22.9 23.4 15.0 61 4.7 SSW 6 9 3 5 1009.1 1008.9 0.0
16/10:00pm 23.1 23.5 14.7 59 5.0 S 6 9 3 5 1008.9 1008.7 0.0
16/09:30pm 24.6 24.0 14.7 54 5.9 SSW 11 17 6 9 1008.6 1008.4 0.0
16/09:00pm 25.5 25.7 14.3 50 6.7 SSW 6 9 3 5 1008.5 1008.3 0.0
16/08:30pm 26.4 25.4 14.5 48 7.1 SW 13 20 7 11 1008.5 1008.3 0.0
16/08:00pm 28.2 28.5 13.3 40 8.8 NNE 4 6 2 3 1007.5 1007.4 0.0
16/07:30pm 28.5 28.2 13.2 39 9.1 ENE 7 9 4 5 1007.0 1006.9 0.0
16/07:00pm 28.2 27.0 12.9 38 9.0 NE 11 19 6 10 1006.9 1006.8 0.0
16/06:30pm 28.5 26.1 12.8 38 9.2 ENE 17 24 9 13 1006.9 1006.8 0.0
16/06:00pm 29.0 27.0 12.8 36 9.6 ENE 15 22 8 12 1006.9 1006.8 0.0
16/05:30pm 27.3 24.5 12.5 40 8.6 E 19 28 10 15 1007.2 1007.1 0.0
16/05:00pm 27.6 25.6 14.9 45 7.7 ENE 19 28 10 15 1007.7 1007.6 0.0
16/04:30pm 25.6 24.0 15.9 55 5.9 ENE 19 28 10 15 1008.6 1008.4 0.0
16/04:00pm 24.3 22.9 15.5 58 5.3 E 17 26 9 14 1009.3 1009.1 0.0
16/03:30pm 24.8 22.7 15.1 54 5.8 E 20 28 11 15 1010.4 1010.2 0.0
16/03:00pm 25.2 24.1 15.2 54 6.0 ESE 15 24 8 13 1011.1 1010.9 0.0
16/02:30pm 25.9 25.9 15.3 52 6.4 E 9 15 5 8 1011.7 1011.6 0.0
16/02:00pm 26.7 26.7 15.1 49 7.0 ESE 9 15 5 8 1012.2 1012.1 0.0
16/01:30pm 27.8 26.7 16.4 50 7.1 ESE 17 26 9 14 1011.6 1011.5 0.0
16/01:00pm 25.0 24.9 17.0 61 5.0 SSE 13 17 7 9 1012.0 1011.9 0.0
16/12:30pm 23.9 22.2 16.2 62 4.7 SSW 20 28 11 15 1012.5 1012.4 0.0
16/12:00pm 23.3 20.8 16.1 64 4.4 SSW 24 33 13 18 1012.7 1012.6 0.0
16/11:30am 25.2 24.1 16.4 58 5.4 SW 17 26 9 14 1012.1 1012.0 0.0
16/11:00am 25.1 26.2 15.7 56 5.7 ESE 4 9 2 5 1010.8 1010.6 0.0
16/10:30am 24.4 24.9 15.6 58 5.3 E 7 11 4 6 1010.6 1010.4 0.0
16/10:00am 22.7 23.0 15.0 61 4.6 ESE 7 13 4 7 1010.8 1010.6 0.0
16/09:30am 21.7 21.7 15.3 67 3.8 SE 9 13 5 7 1010.9 1010.7 0.0
16/09:00am 20.5 21.0 15.5 73 3.0 SE 7 11 4 6 1010.9 1010.7 0.0
16/08:30am 19.3 20.0 16.0 81 2.0 ENE 7 13 4 7 1010.7 1010.5 0.0
16/08:00am 18.1 18.4 15.9 87 1.3 ENE 9 15 5 8 1010.2 1010.0 0.0
16/07:30am 17.1 18.0 16.0 93 0.7 ENE 6 7 3 4 1010.2 1010.0 0.0
16/07:00am 16.5 17.1 15.4 93 0.6 ENE 6 7 3 4 1009.9 1009.7 0.0
16/06:30am 16.6 17.1 15.1 91 0.9 ESE 6 9 3 5 1009.8 1009.6 0.0
16/06:00am 17.2 16.9 15.4 89 1.1 E 11 13 6 7 1009.4 1009.2 0.0
16/05:30am 17.6 17.4 15.6 88 1.2 ESE 11 17 6 9 1009.8 1009.6 0.0
16/05:00am 17.7 18.0 15.9 89 1.1 SE 9 13 5 7 1009.9 1009.7 0.0
16/04:30am 17.8 18.1 16.0 89 1.1 S 9 13 5 7 1010.3 1010.1 0.0
16/04:00am 17.6 17.5 16.1 91 0.9 ESE 11 17 6 9 1010.2 1010.0 0.0
16/03:30am 17.3 17.9 15.8 91 0.9 ESE 7 9 4 5 1010.3 1010.1 0.0
16/03:00am 17.6 17.7 16.6 94 0.6 S 11 13 6 7 1010.8 1010.6 0.0
16/02:30am 17.2 17.9 16.1 93 0.7 SSW 7 9 4 5 1011.2 1011.0 0.0
16/02:00am 17.9 18.6 16.2 90 1.0 SSE 7 11 4 6 1011.2 1011.0 0.0
16/01:30am 18.7 19.3 16.9 89 1.1 S 9 11 5 6 1011.5 1011.4 0.0
16/01:00am 18.9 19.2 16.9 88 1.2 SSE 11 17 6 9 1011.7 1011.6 0.0
16/12:30am 19.2 19.2 17.3 89 1.2 S 13 19 7 10 1011.6 1011.5 0.0
16/12:00am 19.2 19.5 17.0 87 1.3 S 11 19 6 10 1011.4 1011.3 0.0
 
Date/Time
EDT
Temp
°C
App
Temp
°C
Dew
Point
°C
Rel
Hum
%
Delta-T
°C
Wind Press
QNH
hPa
Press
MSL
hPa
Rain since
9am
mm
Dir  Spd
km/h
Gust
km/h
Spd
kts
Gust
kts
15/11:30pm 19.6 19.2 17.2 86 1.5 S 15 24 8 13 1011.8 1011.7 0.0
15/11:00pm 20.1 19.9 15.7 76 2.6 SSW 11 17 6 9 1012.2 1012.1 0.0
15/10:30pm 20.3 20.0 14.4 69 3.4 SSW 9 13 5 7 1011.0 1010.8 0.0
15/10:00pm 21.1 19.9 12.8 59 4.7 SW 11 19 6 10 1011.3 1011.2 0.0
15/09:30pm 22.1 19.1 10.6 48 6.3 SSW 17 24 9 13 1010.6 1010.4 0.0
15/09:00pm 23.6 19.8 7.7 36 8.4 SW 17 26 9 14 1010.5 1010.3 0.0
15/08:30pm 26.1 22.0 6.2 28 10.3 SW 17 24 9 13 1009.9 1009.7 0.0
15/08:00pm 28.7 24.2 4.2 21 12.5 SW 17 30 9 16 1009.7 1009.5 0.0
15/07:30pm 29.8 25.1 2.9 18 13.5 SW 17 22 9 12 1008.8 1008.6 0.0
15/07:00pm 32.9 28.1 -2.7 10 16.6 SW 13 19 7 10 1008.4 1008.2 0.0
15/06:30pm 34.6 28.8 -1.4 10 17.4 SSW 19 24 10 13 1008.1 1007.9 0.0
15/06:00pm 36.6 32.2 0.1 10 18.3 SW 13 22 7 12 1007.7 1007.6 0.0
15/05:30pm 36.4 32.0 2.5 12 17.6 SW 15 20 8 11 1007.7 1007.6 0.0
15/05:00pm 36.8 32.0 2.8 12 17.8 SW 17 26 9 14 1007.7 1007.6 0.0
15/04:30pm 38.1 32.7 1.2 10 19.0 SSW 19 26 10 14 1007.7 1007.6 0.0
15/04:00pm 39.1 34.2 1.9 10 19.5 SSW 17 26 9 14 1007.8 1007.7 0.0
15/03:30pm 38.9 34.0 1.8 10 19.3 WSW 17 28 9 15 1008.4 1008.2 0.0
15/03:00pm 37.6 33.9 2.1 11 18.5 W 11 19 6 10 1008.9 1008.7 0.0
15/02:30pm 36.9 33.7 2.8 12 17.8 WNW 9 19 5 10 1009.1 1008.9 0.0
15/02:00pm 36.4 33.5 4.6 14 17.1 W 9 19 5 10 1009.6 1009.4 0.0
15/01:30pm 35.1 32.2 6.4 17 15.7 W 11 19 6 10 1010.1 1009.9 0.0
15/01:00pm 33.5 29.9 5.1 17 15.1 WNW 13 22 7 12 1010.3 1010.1 0.0
15/12:30pm 31.8 29.4 5.3 19 14.0 NW 7 13 4 7 1010.1 1009.9 0.0
15/12:00pm 29.5 28.0 8.5 27 11.6 NNW 6 11 3 6 1010.4 1010.2 0.0
15/11:30am 27.3 26.7 11.7 37 9.0 NE 6 9 3 5 1010.3 1010.1 0.0
15/11:00am 24.2 23.9 13.4 51 6.3 ENE 7 13 4 7 1010.2 1010.0 0.0
15/10:30am 23.4 24.1 13.3 53 5.9 SW 2 7 1 4 1010.4 1010.2 0.0
15/10:00am 22.1 22.6 14.0 60 4.7 S 4 6 2 3 1010.5 1010.3 0.0
15/09:30am 19.7 21.1 14.5 72 3.0 CALM 0 2 0 1 1010.8 1010.6 0.0
15/09:00am 18.3 19.8 14.6 79 2.1 CALM 0 2 0 1 1010.4 1010.2 0.0
15/08:30am 17.7 19.1 15.3 86 1.4 ENE 2 4 1 2 1010.2 1010.0 0.0
15/08:00am 16.6 18.0 15.3 92 0.8 ESE 2 4 1 2 1010.2 1010.0 0.0
15/07:30am 15.5 16.4 15.0 97 0.3 W 4 6 2 3 1009.8 1009.6 0.0
15/07:00am 14.9 15.7 14.7 99 0.1 SW 4 9 2 5 1009.4 1009.2 0.0
15/06:30am 15.1 15.6 15.1 100 0.0 WNW 6 11 3 6 1008.8 1008.6 0.0
15/06:00am 14.9 15.4 14.9 100 0.0 N 6 7 3 4 1007.8 1007.7 0.0
15/05:30am 14.0 15.3 14.0 100 0.0 CALM 0 0 0 0 1007.7 1007.6 0.0
15/05:00am 13.6 14.4 13.6 100 0.0 SE 2 4 1 2 1008.0 1007.8 0.0
15/04:30am 14.7 16.2 14.7 100 0.0 CALM 0 2 0 1 1008.5 1008.3 0.0
15/04:00am 14.2 14.8 14.2 100 0.0 E 4 6 2 3 1008.6 1008.4 0.0
15/03:30am 14.5 14.8 14.5 100 0.0 ENE 6 6 3 3 1008.9 1008.7 0.0
15/03:00am 14.7 15.4 14.5 99 0.1 E 4 4 2 2 1009.5 1009.3 0.0
15/02:30am 14.9 16.0 14.7 99 0.1 ESE 2 4 1 2 1010.0 1009.8 0.0
15/02:00am 15.2 16.4 14.9 98 0.2 SE 2 4 1 2 1010.3 1010.1 0.0
15/01:30am 16.0 17.1 15.5 97 0.3 E 4 4 2 2 1010.6 1010.4 0.0
15/01:00am 16.2 17.2 15.4 95 0.5 ESE 4 4 2 2 1010.8 1010.6 0.0
15/12:30am 16.7 17.8 15.7 94 0.6 SE 4 4 2 2 1010.9 1010.7 0.0
15/12:00am 16.9 17.5 15.4 91 0.9 SE 6 7 3 4 1011.1 1010.9 0.0
 
Date/Time
EDT
Temp
°C
App
Temp
°C
Dew
Point
°C
Rel
Hum
%
Delta-T
°C
Wind Press
QNH
hPa
Press
MSL
hPa
Rain since
9am
mm
Dir  Spd
km/h
Gust
km/h
Spd
kts
Gust
kts
14/11:30pm 17.2 17.7 15.0 87 1.3 ESE 6 6 3 3 1011.4 1011.3 0.0
14/11:00pm 18.1 19.2 15.5 85 1.5 SSE 4 6 2 3 1011.6 1011.5 0.0
14/10:30pm 19.6 20.7 15.7 78 2.3 ESE 4 6 2 3 1011.4 1011.3 0.0
14/10:00pm 20.5 20.1 15.3 72 3.1 ESE 11 15 6 8 1011.3 1011.2 0.0

Other Formats:

Comma delimited format used in spreadsheet applications
http://www.bom.gov.au/fwo/IDV60801/IDV60801.95822.axf

JavaScript Object Notation format (JSON) in row-major order
http://www.bom.gov.au/fwo/IDV60801/IDV60801.95822.json